createdAt,value
2022-09-24T00:00:55.007Z,69.5
2022-09-24T00:01:58.550Z,69.5
2022-09-24T00:03:02.491Z,69.7
2022-09-24T00:04:06.841Z,69.4
2022-09-24T00:05:09.059Z,69.9
2022-09-24T00:06:11.775Z,69.6
2022-09-24T00:07:14.016Z,69.9
2022-09-24T00:08:16.278Z,69.9
2022-09-24T00:09:18.813Z,69.7
2022-09-24T00:10:21.977Z,70.1
2022-09-24T00:11:25.164Z,69.9
2022-09-24T00:12:28.527Z,69.7
2022-09-24T00:13:31.675Z,69.9
2022-09-24T00:14:35.082Z,69.9
2022-09-24T00:15:37.960Z,69.9
2022-09-24T00:16:41.880Z,69.9
2022-09-24T00:17:44.789Z,70
2022-09-24T00:18:47.883Z,70
2022-09-24T00:19:51.041Z,70.1
2022-09-24T00:20:54.326Z,70.1
2022-09-24T00:21:58.016Z,70.1
2022-09-24T00:23:01.264Z,70.4
2022-09-24T00:24:04.502Z,70.6
2022-09-24T00:25:07.809Z,70.5
2022-09-24T00:26:10.648Z,70.5
2022-09-24T00:27:13.720Z,70.7
2022-09-24T00:28:16.046Z,70.5
2022-09-24T00:29:19.709Z,70.4
2022-09-24T00:30:23.161Z,70.4
2022-09-24T00:31:27.229Z,70.5
2022-09-24T00:32:30.858Z,70.8
2022-09-24T00:33:34.603Z,70.7
2022-09-24T00:34:37.591Z,70.4
2022-09-24T00:35:40.409Z,70.6
2022-09-24T00:36:43.203Z,70.7
2022-09-24T00:37:45.722Z,70.7
2022-09-24T00:38:48.330Z,70.8
2022-09-24T00:39:51.399Z,70.8
2022-09-24T00:40:54.932Z,70.6
2022-09-24T00:41:58.120Z,70.7
2022-09-24T00:43:01.564Z,70.8
2022-09-24T00:44:04.520Z,70.8
2022-09-24T00:45:07.886Z,70.8
2022-09-24T00:46:10.446Z,70.6
2022-09-24T00:47:13.617Z,70.6
2022-09-24T00:48:17.477Z,70.8
2022-09-24T00:49:20.624Z,70.7
2022-09-24T00:50:23.720Z,70.8
2022-09-24T00:51:27.086Z,71
2022-09-24T00:52:30.161Z,71
2022-09-24T00:53:33.430Z,71
2022-09-24T00:54:36.495Z,70.8
2022-09-24T00:55:39.925Z,70.9
2022-09-24T00:56:42.437Z,70.9
2022-09-24T00:57:45.165Z,71.1
2022-09-24T00:58:48.960Z,71
2022-09-24T00:59:51.765Z,71.2
2022-09-24T01:00:54.862Z,71.2
2022-09-24T01:01:58.552Z,71.1
2022-09-24T01:03:02.451Z,70.9
2022-09-24T01:04:06.492Z,70.9
2022-09-24T01:05:10.102Z,70.5
2022-09-24T01:06:13.183Z,70.7
2022-09-24T01:07:16.905Z,70.7
2022-09-24T01:08:19.359Z,71
2022-09-24T01:09:22.506Z,71
2022-09-24T01:10:25.713Z,70.9
2022-09-24T01:11:28.869Z,70.8
2022-09-24T01:12:31.667Z,70.7
2022-09-24T01:13:34.748Z,71
2022-09-24T01:14:46.202Z,70.9
2022-09-24T01:15:49.036Z,70.8
2022-09-24T01:16:52.274Z,70.9
2022-09-24T01:17:54.707Z,71.2
2022-09-24T01:18:58.095Z,70.9
2022-09-24T01:20:02.157Z,71
2022-09-24T01:21:05.276Z,71.2
2022-09-24T01:22:08.429Z,71.1
2022-09-24T01:23:11.982Z,71
2022-09-24T01:24:15.414Z,70.8
2022-09-24T01:25:18.484Z,71.4
2022-09-24T01:26:20.605Z,71.1
2022-09-24T01:27:23.320Z,71.1
2022-09-24T01:28:26.485Z,71.1
2022-09-24T01:29:28.659Z,70.9
2022-09-24T01:30:31.554Z,70.9
2022-09-24T01:31:35.068Z,71
2022-09-24T01:32:38.057Z,71
2022-09-24T01:33:41.325Z,70.9
2022-09-24T01:34:44.390Z,70.9
2022-09-24T01:35:47.605Z,70.9
2022-09-24T01:36:50.336Z,70.8
2022-09-24T01:37:53.792Z,70.9
2022-09-24T01:38:56.236Z,71.1
2022-09-24T01:39:59.640Z,70.9
2022-09-24T01:41:02.201Z,70.9
2022-09-24T01:42:04.820Z,71
2022-09-24T01:43:07.914Z,70.9
2022-09-24T01:44:10.189Z,70.7
2022-09-24T01:45:13.394Z,70.8
2022-09-24T01:46:16.638Z,70.7
2022-09-24T01:47:19.414Z,70.9
2022-09-24T01:48:22.598Z,70.9
2022-09-24T01:49:25.612Z,70.8
2022-09-24T01:50:28.426Z,71
2022-09-24T01:51:32.484Z,70.7
2022-09-24T01:52:35.408Z,70.5
2022-09-24T01:53:38.482Z,70.8
2022-09-24T01:56:21.118Z,70.8
2022-09-24T01:57:24.382Z,70.6
2022-09-24T01:58:26.863Z,71.1
2022-09-24T01:59:29.995Z,71
2022-09-24T02:00:33.182Z,71.4
2022-09-24T02:01:37.079Z,71.3
2022-09-24T02:02:40.656Z,71.4
2022-09-24T02:03:43.214Z,71.3
2022-09-24T02:04:46.127Z,71.3
2022-09-24T02:05:49.276Z,71.1
2022-09-24T02:06:53.057Z,71.2
2022-09-24T02:07:56.538Z,71.3
2022-09-24T02:08:59.787Z,71.3
2022-09-24T02:10:02.885Z,71.4
2022-09-24T02:11:05.667Z,71.2
2022-09-24T02:12:08.106Z,71.4
2022-09-24T02:13:11.121Z,71.3
2022-09-24T02:14:14.184Z,71.3
2022-09-24T02:15:16.976Z,71.4
2022-09-24T02:16:20.126Z,71.4
2022-09-24T02:17:23.530Z,71.7
2022-09-24T02:18:26.690Z,71.8
2022-09-24T02:19:29.763Z,71.3
2022-09-24T02:20:32.933Z,71.3
2022-09-24T02:21:36.224Z,71.6
2022-09-24T02:22:39.750Z,71.7
2022-09-24T02:23:43.163Z,71.7
2022-09-24T02:24:46.247Z,71.8
2022-09-24T02:25:49.600Z,71.7
2022-09-24T02:26:52.386Z,71.7
2022-09-24T02:27:55.175Z,71.7
2022-09-24T02:28:57.976Z,71.9
2022-09-24T02:30:01.493Z,71.7
2022-09-24T02:31:04.780Z,71.6
2022-09-24T02:32:07.761Z,71.5
2022-09-24T02:33:10.917Z,71.6
2022-09-24T02:34:13.732Z,71.6
2022-09-24T02:35:16.802Z,71.9
2022-09-24T02:36:19.619Z,72.2
2022-09-24T02:37:22.892Z,72.1
2022-09-24T02:38:26.704Z,71.7
2022-09-24T02:39:30.001Z,71.9
2022-09-24T02:40:33.731Z,71.8
2022-09-24T02:41:36.737Z,72.2
2022-09-24T02:42:39.994Z,72.3
2022-09-24T02:43:43.308Z,71.8
2022-09-24T02:44:46.163Z,72
2022-09-24T02:45:49.236Z,72.2
2022-09-24T02:46:52.268Z,72.2
2022-09-24T02:47:54.752Z,72.1
2022-09-24T02:48:58.221Z,72
2022-09-24T02:50:01.484Z,72
2022-09-24T02:51:04.651Z,71.9
2022-09-24T02:52:07.449Z,72.4
2022-09-24T02:53:10.822Z,72.2
2022-09-24T02:54:14.326Z,71.9
2022-09-24T02:55:17.832Z,71.9
2022-09-24T02:56:20.823Z,72.4
2022-09-24T02:57:23.724Z,72.5
2022-09-24T02:58:27.420Z,72.5
2022-09-24T02:59:30.409Z,72.4
2022-09-24T03:00:33.863Z,72.2
2022-09-24T03:01:38.346Z,72.5
2022-09-24T03:02:42.689Z,72.6
2022-09-24T03:03:45.639Z,72.4
2022-09-24T03:04:49.073Z,72.5
2022-09-24T03:05:52.250Z,72.6
2022-09-24T03:06:55.262Z,72.6
2022-09-24T03:07:57.697Z,72.8
2022-09-24T03:09:00.860Z,72.5
2022-09-24T03:10:04.653Z,72.5
2022-09-24T03:11:08.126Z,72.3
2022-09-24T03:12:11.902Z,72.5
2022-09-24T03:13:14.973Z,72.6
2022-09-24T03:14:18.041Z,72.8
2022-09-24T03:15:21.112Z,73
2022-09-24T03:16:23.862Z,72.8
2022-09-24T03:17:27.071Z,73.4
2022-09-24T03:18:29.780Z,73.4
2022-09-24T03:19:33.222Z,73.1
2022-09-24T03:20:35.458Z,73.7
2022-09-24T03:21:37.614Z,73.7
2022-09-24T03:22:40.143Z,73.1
2022-09-24T03:23:43.569Z,73.3
2022-09-24T03:24:46.682Z,73.3
2022-09-24T03:25:49.923Z,73.3
2022-09-24T03:26:53.109Z,73.1
2022-09-24T03:27:55.356Z,73.4
2022-09-24T03:28:58.789Z,73.4
2022-09-24T03:30:02.233Z,73.6
2022-09-24T03:31:05.567Z,73.3
2022-09-24T03:32:08.553Z,73.5
2022-09-24T03:33:11.543Z,73.3
2022-09-24T03:34:14.591Z,73.1
2022-09-24T03:35:17.370Z,74.1
2022-09-24T03:36:20.194Z,74.1
2022-09-24T03:37:22.719Z,73.9
2022-09-24T03:38:25.543Z,73.8
2022-09-24T03:39:27.698Z,74
2022-09-24T03:40:30.989Z,73.5
2022-09-24T03:41:35.114Z,74
2022-09-24T03:42:39.164Z,74.4
2022-09-24T03:43:42.309Z,74.3
2022-09-24T03:44:46.040Z,74.8
2022-09-24T03:45:49.189Z,74.8
2022-09-24T03:46:52.818Z,75
2022-09-24T03:47:55.442Z,74.5
2022-09-24T03:48:59.264Z,74.4
2022-09-24T03:50:02.743Z,74.8
2022-09-24T03:51:05.883Z,74.5
2022-09-24T03:52:08.881Z,74.7
2022-09-24T03:53:11.192Z,74.4
2022-09-24T03:54:13.442Z,74.8
2022-09-24T03:55:16.702Z,74.7
2022-09-24T03:56:19.303Z,75.2
2022-09-24T03:57:23.437Z,75.4
2022-09-24T03:58:27.009Z,75.6
2022-09-24T03:59:29.804Z,75.4
2022-09-24T04:00:38.876Z,75.4
2022-09-24T04:01:44.443Z,75.1
2022-09-24T04:02:48.321Z,75.2
2022-09-24T04:03:51.947Z,74.6
2022-09-24T04:04:54.743Z,75
2022-09-24T04:05:57.903Z,75
2022-09-24T04:07:00.898Z,74.9
2022-09-24T04:08:04.263Z,74.9
2022-09-24T04:09:07.406Z,75
2022-09-24T04:10:10.515Z,75.2
2022-09-24T04:11:13.654Z,75.5
2022-09-24T04:12:17.041Z,75.9
2022-09-24T04:13:20.044Z,76.1
2022-09-24T04:14:23.323Z,77
2022-09-24T04:15:26.682Z,75.7
2022-09-24T04:16:30.221Z,75.6
2022-09-24T04:17:33.263Z,75.6
2022-09-24T04:18:40.589Z,75.3
2022-09-24T04:19:43.483Z,75.4
2022-09-24T04:20:45.917Z,75.7
2022-09-24T04:21:49.343Z,76.1
2022-09-24T04:22:52.369Z,75.9
2022-09-24T04:23:54.605Z,75.5
2022-09-24T04:24:57.329Z,76
2022-09-24T04:26:00.122Z,75.4
2022-09-24T04:27:02.367Z,75.7
2022-09-24T04:28:07.250Z,75.7
2022-09-24T04:29:11.021Z,76
2022-09-24T04:30:13.940Z,75.6
2022-09-24T04:31:17.495Z,76.2
2022-09-24T04:32:21.243Z,76.6
2022-09-24T04:33:23.945Z,76.7
2022-09-24T04:34:27.092Z,76.7
2022-09-24T04:35:30.047Z,76.4
2022-09-24T04:36:33.487Z,76.4
2022-09-24T04:37:36.361Z,76.7
2022-09-24T04:38:39.824Z,76
2022-09-24T04:39:43.195Z,75.9
2022-09-24T04:40:46.746Z,77.1
2022-09-24T04:41:49.774Z,77.1
2022-09-24T04:42:53.302Z,76.8
2022-09-24T04:43:57.049Z,76.9
2022-09-24T04:45:00.836Z,77
2022-09-24T04:46:04.936Z,76.7
2022-09-24T04:47:07.714Z,76.9
2022-09-24T04:48:10.521Z,77.5
2022-09-24T04:49:13.243Z,77.8
2022-09-24T04:50:16.266Z,77.9
2022-09-24T04:51:19.722Z,77.7
2022-09-24T04:52:22.234Z,77.8
2022-09-24T04:53:25.306Z,77.5
2022-09-24T04:54:28.752Z,77.8
2022-09-24T04:55:31.846Z,77.9
2022-09-24T04:56:34.820Z,78.1
2022-09-24T04:57:38.110Z,78
2022-09-24T04:58:40.712Z,78.1
2022-09-24T04:59:43.245Z,78.4
2022-09-24T05:00:47.025Z,78.3
2022-09-24T05:01:50.950Z,78.2
2022-09-24T05:02:54.496Z,78.4
2022-09-24T05:03:57.953Z,78.8
2022-09-24T05:05:01.158Z,78.7
2022-09-24T05:06:03.683Z,78.5
2022-09-24T05:07:07.432Z,78.4
2022-09-24T05:08:10.814Z,78.2
2022-09-24T05:09:15.119Z,78.3
2022-09-24T05:10:18.975Z,78.6
2022-09-24T05:11:22.147Z,78.3
2022-09-24T05:12:24.662Z,78.4
2022-09-24T05:13:28.180Z,78.5
2022-09-24T05:14:31.167Z,78.4
2022-09-24T05:15:34.182Z,78.3
2022-09-24T05:16:40.932Z,78.1
2022-09-24T05:17:44.283Z,78.3
2022-09-24T05:18:47.274Z,78.8
2022-09-24T05:19:49.987Z,78.2
2022-09-24T05:20:52.857Z,78.5
2022-09-24T05:21:56.030Z,78.5
2022-09-24T05:22:59.774Z,78.8
2022-09-24T05:24:02.237Z,78.8
2022-09-24T05:25:05.386Z,78.6
2022-09-24T05:26:08.613Z,78.5
2022-09-24T05:27:12.072Z,78.3
2022-09-24T05:28:16.480Z,78.6
2022-09-24T05:29:19.541Z,78.4
2022-09-24T05:30:23.285Z,78.3
2022-09-24T05:31:27.304Z,78.7
2022-09-24T05:32:31.268Z,78.5
2022-09-24T05:33:34.468Z,78.6
2022-09-24T05:34:37.815Z,78.8
2022-09-24T05:35:40.895Z,78.6
2022-09-24T05:36:43.966Z,78.6
2022-09-24T05:37:46.486Z,78.5
2022-09-24T05:38:49.657Z,78.5
2022-09-24T05:39:53.081Z,78.8
2022-09-24T05:40:55.883Z,78.8
2022-09-24T05:41:59.313Z,78.9
2022-09-24T05:43:01.837Z,78.7
2022-09-24T05:44:04.996Z,79
2022-09-24T05:45:07.709Z,79.2
2022-09-24T05:46:10.592Z,78.7
2022-09-24T05:47:13.945Z,78.8
2022-09-24T05:48:17.828Z,79.1
2022-09-24T05:49:20.871Z,79
2022-09-24T05:50:23.606Z,78.7
2022-09-24T05:51:26.414Z,78.9
2022-09-24T05:52:29.214Z,78.6
2022-09-24T05:53:32.513Z,78.2
2022-09-24T05:54:35.780Z,78.7
2022-09-24T05:55:39.407Z,79.3
2022-09-24T05:56:42.475Z,79.5
2022-09-24T05:57:45.551Z,79.3
2022-09-24T05:58:48.692Z,79.6
2022-09-24T05:59:51.568Z,79.8
2022-09-24T06:00:54.370Z,79.9
2022-09-24T06:01:57.582Z,79.7
2022-09-24T06:03:01.275Z,79.7
2022-09-24T06:04:10.184Z,80
2022-09-24T06:05:13.388Z,79.9
2022-09-24T06:06:16.737Z,80
2022-09-24T06:07:19.537Z,79.9
2022-09-24T06:08:22.833Z,79.6
2022-09-24T06:09:25.340Z,80.1
2022-09-24T06:10:28.317Z,79.9
2022-09-24T06:11:33.531Z,80
2022-09-24T06:12:43.082Z,80.4
2022-09-24T06:13:45.964Z,80.3
2022-09-24T06:14:49.032Z,80.4
2022-09-24T06:15:52.974Z,80.9
2022-09-24T06:16:56.160Z,80.3
2022-09-24T06:17:59.785Z,79.7
2022-09-24T06:19:03.610Z,79.6
2022-09-24T06:20:07.506Z,80.3
2022-09-24T06:21:10.739Z,80.2
2022-09-24T06:22:13.560Z,79.9
2022-09-24T06:23:16.335Z,79.8
2022-09-24T06:24:18.768Z,80.8
2022-09-24T06:25:21.781Z,79.7
2022-09-24T06:26:25.149Z,79.9
2022-09-24T06:27:28.422Z,80.5
2022-09-24T06:28:31.689Z,80.2
2022-09-24T06:29:34.751Z,79.7
2022-09-24T06:30:38.176Z,79.9
2022-09-24T06:31:41.444Z,79.8
2022-09-24T06:32:44.820Z,79.9
2022-09-24T06:33:47.263Z,79.7
2022-09-24T06:34:58.937Z,79.9
2022-09-24T06:36:02.986Z,79.9
2022-09-24T06:37:05.065Z,79.4
2022-09-24T06:38:08.409Z,79.7
2022-09-24T06:39:11.048Z,79.1
2022-09-24T06:40:14.976Z,79.2
2022-09-24T06:41:18.518Z,79.1
2022-09-24T06:42:21.620Z,79.2
2022-09-24T06:43:25.334Z,79.5
2022-09-24T06:44:28.134Z,79.8
2022-09-24T06:45:31.519Z,79.8
2022-09-24T06:46:35.059Z,79.7
2022-09-24T06:47:38.318Z,79.6
2022-09-24T06:48:40.928Z,79.9
2022-09-24T06:49:43.802Z,79.7
2022-09-24T06:50:47.047Z,79.5
2022-09-24T06:51:50.602Z,79.6
2022-09-24T06:52:53.368Z,79.2
2022-09-24T06:53:56.362Z,79.3
2022-09-24T06:54:59.426Z,80.8
2022-09-24T06:56:02.141Z,80.2
2022-09-24T06:57:04.862Z,79.5
2022-09-24T06:58:08.613Z,79.4
2022-09-24T06:59:12.106Z,79.5
2022-09-24T07:00:14.841Z,80.2
2022-09-24T07:01:18.638Z,80
2022-09-24T07:02:22.157Z,79.8
2022-09-24T07:03:25.033Z,79
2022-09-24T07:04:28.298Z,79.3
2022-09-24T07:05:31.644Z,79.3
2022-09-24T07:06:35.439Z,78.9
2022-09-24T07:07:39.205Z,79.6
2022-09-24T07:08:42.099Z,80
2022-09-24T07:09:45.078Z,79.8
2022-09-24T07:10:48.149Z,79.5
2022-09-24T07:11:50.391Z,79.5
2022-09-24T07:12:53.568Z,79.3
2022-09-24T07:13:56.864Z,79.4
2022-09-24T07:15:00.029Z,79.9
2022-09-24T07:16:03.545Z,79.5
2022-09-24T07:17:06.581Z,79.3
2022-09-24T07:18:09.643Z,79.3
2022-09-24T07:19:13.472Z,78.9
2022-09-24T07:20:16.650Z,78.7
2022-09-24T07:21:20.372Z,79.1
2022-09-24T07:22:23.506Z,79.3
2022-09-24T07:23:27.186Z,78.6
2022-09-24T07:24:31.214Z,78.7
2022-09-24T07:25:34.450Z,78.5
2022-09-24T07:26:38.067Z,78.7
2022-09-24T07:27:40.311Z,78.5
2022-09-24T07:28:43.399Z,78.7
2022-09-24T07:29:46.783Z,78.5
2022-09-24T07:30:49.540Z,78.1
2022-09-24T07:31:52.420Z,78.4
2022-09-24T07:32:55.211Z,78.5
2022-09-24T07:33:58.206Z,78.1
2022-09-24T07:35:01.304Z,78.4
2022-09-24T07:36:04.018Z,78.8
2022-09-24T07:37:07.363Z,78.6
2022-09-24T07:38:10.779Z,78.6
2022-09-24T07:39:14.620Z,78.6
2022-09-24T07:40:17.610Z,77.7
2022-09-24T07:41:20.427Z,77.8
2022-09-24T07:42:23.372Z,78
2022-09-24T07:43:27.325Z,78.5
2022-09-24T07:44:30.216Z,78.3
2022-09-24T07:45:32.868Z,78.4
2022-09-24T07:46:36.685Z,78
2022-09-24T07:47:40.078Z,77.9
2022-09-24T07:48:42.976Z,78.3
2022-09-24T07:49:45.922Z,77.5
2022-09-24T07:50:49.934Z,77.4
2022-09-24T07:51:53.381Z,77.6
2022-09-24T07:52:56.497Z,77.5
2022-09-24T07:53:59.600Z,78
2022-09-24T07:55:03.591Z,78
2022-09-24T07:56:06.983Z,77.9
2022-09-24T07:57:09.758Z,77.7
2022-09-24T07:58:12.575Z,77.6
2022-09-24T07:59:15.286Z,78.4
2022-09-24T08:00:17.606Z,78.3
2022-09-24T08:01:21.292Z,77.9
2022-09-24T08:02:24.659Z,77.2
2022-09-24T08:03:27.812Z,78.2
2022-09-24T08:04:31.218Z,77.5
2022-09-24T08:05:34.406Z,77.5
2022-09-24T08:06:48.046Z,77.1
2022-09-24T08:07:51.029Z,76.9
2022-09-24T08:08:54.035Z,76.8
2022-09-24T08:09:57.460Z,76.5
2022-09-24T08:11:01.531Z,77.6
2022-09-24T08:12:04.613Z,77.6
2022-09-24T08:13:06.853Z,77.1
2022-09-24T08:14:10.163Z,76.7
2022-09-24T08:15:14.252Z,76.7
2022-09-24T08:16:16.931Z,76.6
2022-09-24T08:17:20.473Z,76.8
2022-09-24T08:18:23.818Z,76.6
2022-09-24T08:19:26.151Z,76.5
2022-09-24T08:20:28.968Z,76
2022-09-24T08:21:32.244Z,75.8
2022-09-24T08:22:35.699Z,75.6
2022-09-24T08:23:39.031Z,75.4
2022-09-24T08:24:41.892Z,75.1
2022-09-24T08:25:44.979Z,74.9
2022-09-24T08:26:48.577Z,74.3
2022-09-24T08:27:52.062Z,75.1
2022-09-24T08:28:55.129Z,74.3
2022-09-24T08:29:58.205Z,74
2022-09-24T08:31:01.397Z,74.1
2022-09-24T08:32:03.900Z,74.5
2022-09-24T08:33:06.441Z,74.3
2022-09-24T08:34:10.080Z,73.5
2022-09-24T08:35:13.637Z,72.9
2022-09-24T08:36:16.351Z,72.7
2022-09-24T08:37:18.884Z,73.3
2022-09-24T08:38:21.687Z,73.4
2022-09-24T08:39:25.132Z,72.9
2022-09-24T08:40:28.325Z,73.3
2022-09-24T08:41:31.722Z,73.7
2022-09-24T08:42:35.489Z,74
2022-09-24T08:43:38.692Z,74.4
2022-09-24T08:44:41.296Z,73
2022-09-24T08:45:43.879Z,73
2022-09-24T08:46:47.742Z,73.7
2022-09-24T08:47:51.027Z,73.7
2022-09-24T08:48:53.281Z,73.1
2022-09-24T08:49:55.827Z,73.4
2022-09-24T08:50:59.023Z,72.9
2022-09-24T08:52:02.462Z,73.2
2022-09-24T08:53:05.181Z,70.6
2022-09-24T08:54:08.316Z,70.8
2022-09-24T08:55:11.058Z,70.8
2022-09-24T08:56:14.143Z,71.1
2022-09-24T08:57:17.409Z,70.6
2022-09-24T08:58:21.268Z,70.3
2022-09-24T08:59:25.318Z,71.2
2022-09-24T09:00:28.836Z,71.5
2022-09-24T09:01:32.219Z,70.8
2022-09-24T09:02:36.411Z,70.5
2022-09-24T09:03:39.820Z,70.1
2022-09-24T09:04:42.941Z,70
2022-09-24T09:05:50.501Z,69.6
2022-09-24T09:06:53.660Z,69.6
2022-09-24T09:07:56.760Z,69.6
2022-09-24T09:09:09.109Z,69.6
2022-09-24T09:10:12.144Z,69.7
2022-09-24T09:11:15.316Z,69.9
2022-09-24T09:12:18.706Z,69.8
2022-09-24T09:13:22.157Z,69.8
2022-09-24T09:14:33.135Z,69.8
2022-09-24T09:15:44.647Z,69.2
2022-09-24T09:16:48.609Z,69.1
2022-09-24T09:17:51.681Z,68.9
2022-09-24T09:18:54.002Z,69.4
2022-09-24T09:19:57.016Z,69
2022-09-24T09:20:59.857Z,68.8
2022-09-24T09:22:02.655Z,68.9
2022-09-24T09:23:05.825Z,68.6
2022-09-24T09:24:09.340Z,69.4
2022-09-24T09:25:12.158Z,69.8
2022-09-24T09:26:15.223Z,68.4
2022-09-24T09:27:18.321Z,67.7
2022-09-24T09:28:21.117Z,67.7
2022-09-24T09:29:24.018Z,68
2022-09-24T09:30:27.972Z,67.9
2022-09-24T09:31:31.016Z,67.7
2022-09-24T09:32:34.321Z,67.7
2022-09-24T09:33:37.315Z,68.3
2022-09-24T09:34:41.120Z,68.1
2022-09-24T09:35:44.201Z,68.1
2022-09-24T09:36:46.916Z,68
2022-09-24T09:37:49.652Z,67.4
2022-09-24T09:38:52.362Z,67.3
2022-09-24T09:39:55.543Z,67.5
2022-09-24T09:40:58.456Z,67.6
2022-09-24T09:42:02.141Z,67.5
2022-09-24T09:43:04.668Z,67.4
2022-09-24T09:44:08.270Z,67.4
2022-09-24T09:45:11.191Z,67.3
2022-09-24T09:46:15.784Z,67.3
2022-09-24T09:47:19.085Z,67.3
2022-09-24T09:48:22.482Z,67
2022-09-24T09:49:25.339Z,67.6
2022-09-24T09:50:28.498Z,67.1
2022-09-24T09:51:31.333Z,66.6
2022-09-24T09:52:34.500Z,67.6
2022-09-24T09:53:37.674Z,67.6
2022-09-24T09:54:40.537Z,67.5
2022-09-24T09:55:43.715Z,66.9
2022-09-24T09:56:47.452Z,66.6
2022-09-24T09:57:51.199Z,67
2022-09-24T09:58:54.001Z,67
2022-09-24T09:59:56.818Z,67.5
2022-09-24T10:00:59.283Z,67.4
2022-09-24T10:02:03.714Z,67
2022-09-24T10:03:07.963Z,67.2
2022-09-24T10:04:11.365Z,66.9
2022-09-24T10:05:28.050Z,66.7
2022-09-24T10:06:32.047Z,68.6
2022-09-24T10:07:35.296Z,67.2
2022-09-24T10:08:38.262Z,66
2022-09-24T10:09:40.877Z,66.6
2022-09-24T10:10:43.593Z,66.5
2022-09-24T10:11:46.506Z,66.1
2022-09-24T10:12:49.643Z,66.2
2022-09-24T10:13:52.743Z,65.7
2022-09-24T10:14:55.565Z,66.5
2022-09-24T10:15:59.662Z,66.2
2022-09-24T10:17:02.131Z,65.7
2022-09-24T10:18:05.757Z,65.5
2022-09-24T10:19:08.826Z,65.1
2022-09-24T10:20:11.347Z,65.2
2022-09-24T10:21:14.727Z,65.5
2022-09-24T10:22:17.525Z,66.7
2022-09-24T10:23:20.981Z,64.5
2022-09-24T10:24:23.704Z,64.2
2022-09-24T10:25:26.314Z,64.5
2022-09-24T10:26:29.499Z,64.7
2022-09-24T10:27:32.215Z,64.9
2022-09-24T10:28:35.662Z,64.9
2022-09-24T10:29:38.464Z,64.9
2022-09-24T10:30:41.615Z,65.3
2022-09-24T10:31:45.176Z,64.8
2022-09-24T10:32:48.564Z,64.7
2022-09-24T10:33:52.823Z,65.5
2022-09-24T10:34:55.637Z,65.1
2022-09-24T10:35:58.706Z,64.8
2022-09-24T10:37:01.185Z,65.2
2022-09-24T10:38:06.663Z,65
2022-09-24T10:39:09.561Z,63.7
2022-09-24T10:40:12.723Z,63.4
2022-09-24T10:41:15.837Z,63
2022-09-24T10:42:19.222Z,62.6
2022-09-24T10:43:22.212Z,63.2
2022-09-24T10:44:24.652Z,64.1
2022-09-24T10:45:27.369Z,64.3
2022-09-24T10:46:31.177Z,63.5
2022-09-24T10:47:34.273Z,63.9
2022-09-24T10:48:37.282Z,64.7
2022-09-24T10:49:41.092Z,64.5
2022-09-24T10:50:44.439Z,64.9
2022-09-24T10:51:47.496Z,64.1
2022-09-24T10:52:50.481Z,65.4
2022-09-24T10:53:54.228Z,65.2
2022-09-24T10:54:57.683Z,64.9
2022-09-24T10:56:00.542Z,63.7
2022-09-24T10:57:03.422Z,64.4
2022-09-24T10:58:06.227Z,64.4
2022-09-24T10:59:09.123Z,64.8
2022-09-24T11:00:12.387Z,64.8
2022-09-24T11:01:15.432Z,65.8
2022-09-24T11:02:19.324Z,65.6
2022-09-24T11:03:23.130Z,65.4
2022-09-24T11:04:26.365Z,64.8
2022-09-24T11:05:30.467Z,65.3
2022-09-24T11:06:33.069Z,65.6
2022-09-24T11:07:35.865Z,65.1
2022-09-24T11:08:39.245Z,65.5
2022-09-24T11:09:42.329Z,65.4
2022-09-24T11:10:46.067Z,65.3
2022-09-24T11:11:48.874Z,65.4
2022-09-24T11:12:51.467Z,65.6
2022-09-24T11:13:53.977Z,65.4
2022-09-24T11:14:56.468Z,65.9
2022-09-24T11:15:59.519Z,67
2022-09-24T11:17:03.113Z,66.5
2022-09-24T11:18:06.052Z,66.7
2022-09-24T11:19:08.855Z,66.5
2022-09-24T11:20:12.590Z,67
2022-09-24T11:21:16.538Z,66.7
2022-09-24T11:22:19.879Z,66.6
2022-09-24T11:23:22.602Z,66.1
2022-09-24T11:24:25.769Z,66.5
2022-09-24T11:25:28.645Z,66.3
2022-09-24T11:26:31.346Z,66.4
2022-09-24T11:27:34.518Z,66.9
2022-09-24T11:28:36.955Z,67
2022-09-24T11:29:39.750Z,67.3
2022-09-24T11:30:42.907Z,67
2022-09-24T11:31:46.187Z,66.9
2022-09-24T11:32:49.233Z,66.7
2022-09-24T11:33:52.107Z,66.5
2022-09-24T11:34:55.211Z,66.8
2022-09-24T11:35:58.150Z,66.7
2022-09-24T11:37:01.790Z,66.8
2022-09-24T11:38:05.414Z,66.9
2022-09-24T11:39:08.494Z,66.7
2022-09-24T11:40:11.946Z,66.7
2022-09-24T11:41:15.219Z,67
2022-09-24T11:42:18.145Z,67
2022-09-24T11:43:21.866Z,66.8
2022-09-24T11:44:25.526Z,67.6
2022-09-24T11:45:28.323Z,67.1
2022-09-24T11:46:31.912Z,67.6
2022-09-24T11:47:34.369Z,67.5
2022-09-24T11:48:38.191Z,67.8
2022-09-24T11:49:41.189Z,67.7
2022-09-24T11:50:48.918Z,67.8
2022-09-24T11:51:52.050Z,67.8
2022-09-24T11:52:56.320Z,67.9
2022-09-24T11:53:59.267Z,68.5
2022-09-24T11:55:02.163Z,68.6
2022-09-24T11:56:13.905Z,69
2022-09-24T11:57:17.691Z,69.2
2022-09-24T11:58:21.352Z,69.4
2022-09-24T11:59:24.165Z,69
2022-09-24T12:00:27.349Z,69.2
2022-09-24T12:01:31.183Z,69.3
2022-09-24T12:02:34.845Z,69.6
2022-09-24T12:03:38.707Z,69.9
2022-09-24T12:04:42.220Z,69.4
2022-09-24T12:05:45.298Z,69.2
2022-09-24T12:06:48.097Z,69.9
2022-09-24T12:07:50.620Z,69.7
2022-09-24T12:08:54.840Z,69.4
2022-09-24T12:09:57.697Z,69.4
2022-09-24T12:11:00.375Z,69.6
2022-09-24T12:12:03.484Z,69.3
2022-09-24T12:13:06.559Z,69.3
2022-09-24T12:14:10.090Z,69.2
2022-09-24T12:15:13.072Z,69.8
2022-09-24T12:16:16.225Z,70
2022-09-24T12:17:19.221Z,70
2022-09-24T12:18:21.945Z,70.6
2022-09-24T12:19:24.484Z,70.9
2022-09-24T12:20:28.199Z,70.5
2022-09-24T12:21:31.270Z,70.7
2022-09-24T12:22:34.086Z,70.7
2022-09-24T12:23:37.319Z,70.8
2022-09-24T12:24:40.952Z,70.5
2022-09-24T12:25:44.290Z,70.5
2022-09-24T12:26:47.183Z,70.3
2022-09-24T12:27:50.622Z,70.5
2022-09-24T12:28:53.415Z,71.3
2022-09-24T12:29:56.419Z,73.2
2022-09-24T12:31:00.029Z,73.6
2022-09-24T12:32:03.470Z,73.2
2022-09-24T12:33:06.546Z,72.4
2022-09-24T12:34:09.857Z,73
2022-09-24T12:35:13.321Z,73.8
2022-09-24T12:36:16.479Z,73.9
2022-09-24T12:37:19.922Z,75
2022-09-24T12:38:23.021Z,75.5
2022-09-24T12:39:26.086Z,75.4
2022-09-24T12:40:30.349Z,76.3
2022-09-24T12:41:33.720Z,76.8
2022-09-24T12:42:36.333Z,76.5
2022-09-24T12:43:38.778Z,76.1
2022-09-24T12:44:41.768Z,76.1
2022-09-24T12:45:45.479Z,77
2022-09-24T12:46:48.459Z,77.8
2022-09-24T12:47:51.310Z,78.5
2022-09-24T12:48:54.765Z,78
2022-09-24T12:49:58.038Z,78.2
2022-09-24T12:51:00.916Z,77.8
2022-09-24T12:52:04.000Z,78.1
2022-09-24T12:53:07.075Z,77.8
2022-09-24T12:54:10.325Z,77.9
2022-09-24T12:55:13.119Z,77.6
2022-09-24T12:56:17.015Z,78.1
2022-09-24T12:57:27.305Z,78.5
2022-09-24T12:58:30.326Z,78.6
2022-09-24T12:59:34.071Z,79.8
2022-09-24T13:00:37.492Z,80.2
2022-09-24T13:01:41.469Z,79.5
2022-09-24T13:02:45.998Z,80.2
2022-09-24T13:03:49.279Z,80.8
2022-09-24T13:04:52.737Z,81
2022-09-24T13:05:55.448Z,81.2
2022-09-24T13:06:58.836Z,81.2
2022-09-24T13:08:02.547Z,81.6
2022-09-24T13:09:05.794Z,81.7
2022-09-24T13:10:08.825Z,82.1
2022-09-24T13:11:11.938Z,82.1
2022-09-24T13:12:15.521Z,83.1
2022-09-24T13:13:18.323Z,83.1
2022-09-24T13:14:22.053Z,82.7
2022-09-24T13:15:29.058Z,82.3
2022-09-24T13:16:31.786Z,83
2022-09-24T13:17:36.013Z,84.1
2022-09-24T13:18:38.898Z,83.6
2022-09-24T13:19:41.845Z,83.5
2022-09-24T13:20:51.459Z,83
2022-09-24T13:21:54.536Z,83.4
2022-09-24T13:22:58.285Z,83.3
2022-09-24T13:24:01.419Z,82.2
2022-09-24T13:25:04.571Z,81.8
2022-09-24T13:26:07.581Z,82.1
2022-09-24T13:27:10.687Z,82
2022-09-24T13:28:14.965Z,82.6
2022-09-24T13:29:18.173Z,82.6
2022-09-24T13:30:21.524Z,83.2
2022-09-24T13:31:25.080Z,84.1
2022-09-24T13:32:28.378Z,84
2022-09-24T13:33:32.128Z,84.1
2022-09-24T13:34:35.118Z,83.9
2022-09-24T13:35:37.982Z,83.6
2022-09-24T13:36:41.036Z,83.6
2022-09-24T13:37:44.494Z,83.8
2022-09-24T13:38:47.495Z,84.4
2022-09-24T13:39:50.364Z,83.8
2022-09-24T13:40:54.064Z,83.9
2022-09-24T13:41:57.546Z,84.2
2022-09-24T13:43:00.559Z,84.5
2022-09-24T13:44:04.643Z,84.3
2022-09-24T13:45:11.076Z,84.4
2022-09-24T13:46:14.289Z,84
2022-09-24T13:47:17.582Z,83.8
2022-09-24T13:48:20.591Z,83.4
2022-09-24T13:49:23.585Z,83.5
2022-09-24T13:50:26.251Z,84.1
2022-09-24T13:51:28.735Z,83.8
2022-09-24T13:52:31.447Z,83.6
2022-09-24T13:53:34.727Z,83.6
2022-09-24T13:54:37.744Z,83.4
2022-09-24T13:55:41.019Z,84.1
2022-09-24T13:56:44.366Z,84
2022-09-24T13:57:47.848Z,84.4
2022-09-24T13:58:51.122Z,85
2022-09-24T13:59:54.958Z,85.4
2022-09-24T14:00:58.324Z,85.6
2022-09-24T14:02:01.364Z,85
2022-09-24T14:03:04.138Z,84.6
2022-09-24T14:04:07.757Z,84.4
2022-09-24T14:05:11.634Z,84.5
2022-09-24T14:06:14.528Z,84.9
2022-09-24T14:07:17.741Z,85.2
2022-09-24T14:08:22.304Z,84.9
2022-09-24T14:09:26.123Z,85.2
2022-09-24T14:10:29.194Z,85.3
2022-09-24T14:11:33.038Z,85.3